Map

Track Data

SID SEASON NUMBER BASIN SUBBASIN NAME ISO_TIME NATURE LAT LON WMO_WIND WMO_PRES WMO_AGENCY TRACK_TYPE DIST2LAND LANDFALL IFLAG USA_AGENCY USA_ATCF_ID USA_LAT USA_LON USA_RECORD USA_STATUS USA_WIND USA_PRES USA_SSHS USA_R34_NE USA_R34_SE USA_R34_SW USA_R34_NW USA_R50_NE USA_R50_SE USA_R50_SW USA_R50_NW USA_R64_NE USA_R64_SE USA_R64_SW USA_R64_NW USA_POCI USA_ROCI USA_RMW USA_EYE TOKYO_LAT TOKYO_LON TOKYO_GRADE TOKYO_WIND TOKYO_PRES TOKYO_R50_DIR TOKYO_R50_LONG TOKYO_R50_SHORT TOKYO_R30_DIR TOKYO_R30_LONG TOKYO_R30_SHORT TOKYO_LAND CMA_LAT CMA_LON CMA_CAT CMA_WIND CMA_PRES HKO_LAT HKO_LON HKO_CAT HKO_WIND HKO_PRES NEWDELHI_LAT NEWDELHI_LON NEWDELHI_GRADE NEWDELHI_WIND NEWDELHI_PRES NEWDELHI_CI NEWDELHI_DP NEWDELHI_POCI REUNION_LAT REUNION_LON REUNION_TYPE REUNION_WIND REUNION_PRES REUNION_TNUM REUNION_CI REUNION_RMW REUNION_R34_NE REUNION_R34_SE REUNION_R34_SW REUNION_R34_NW REUNION_R50_NE REUNION_R50_SE REUNION_R50_SW REUNION_R50_NW REUNION_R64_NE REUNION_R64_SE REUNION_R64_SW REUNION_R64_NW BOM_LAT BOM_LON BOM_TYPE BOM_WIND BOM_PRES BOM_TNUM BOM_CI BOM_RMW BOM_R34_NE BOM_R34_SE BOM_R34_SW BOM_R34_NW BOM_R50_NE BOM_R50_SE BOM_R50_SW BOM_R50_NW BOM_R64_NE BOM_R64_SE BOM_R64_SW BOM_R64_NW BOM_ROCI BOM_POCI BOM_EYE BOM_POS_METHOD BOM_PRES_METHOD NADI_LAT NADI_LON NADI_CAT NADI_WIND NADI_PRES WELLINGTON_LAT WELLINGTON_LON WELLINGTON_WIND WELLINGTON_PRES DS824_LAT DS824_LON DS824_STAGE DS824_WIND DS824_PRES TD9636_LAT TD9636_LON TD9636_STAGE TD9636_WIND TD9636_PRES TD9635_LAT TD9635_LON TD9635_WIND TD9635_PRES TD9635_ROCI NEUMANN_LAT NEUMANN_LON NEUMANN_CLASS NEUMANN_WIND NEUMANN_PRES MLC_LAT MLC_LON MLC_CLASS MLC_WIND MLC_PRES USA_GUST BOM_GUST BOM_GUST_PER REUNION_GUST REUNION_GUST_PER USA_SEAHGT USA_SEARAD_NE USA_SEARAD_SE USA_SEARAD_SW USA_SEARAD_NW STORM_SPEED STORM_DIR
1894032S11419 1894 5 SI MM NOT_NAMED 1894-01-31 18:00:00 NR -10.6000 59.1000 main 1037 992 __________O___ -1 -10.6000 59.1000 7 8 261
1894032S11419 1894 5 SI MM NOT_NAMED 1894-01-31 21:00:00 NR -10.6658 58.6939 main 992 950 __________P___ -1 -10.6658 58.6939 7 8 261
1894032S11419 1894 5 SI MM NOT_NAMED 1894-02-01 00:00:00 NR -10.7352 58.2701 main 950 894 __________P___ -1 -10.7352 58.2701 7 9 260
1894032S11419 1894 5 SI MM NOT_NAMED 1894-02-01 03:00:00 NR -10.8120 57.8114 main 894 839 __________P___ -1 -10.8120 57.8114 7 10 260
1894032S11419 1894 5 SI MM NOT_NAMED 1894-02-01 06:00:00 NR -10.9000 57.3000 main 839 783 __________O___ -1 -10.9000 57.3000 7 11 260
1894032S11419 1894 5 SI MM NOT_NAMED 1894-02-01 09:00:00 NR -11.0024 56.7235 main 773 707 __________P___ -1 -11.0024 56.7235 7 12 260
1894032S11419 1894 5 SI MM NOT_NAMED 1894-02-01 12:00:00 NR -11.1197 56.0896 main 707 631 __________P___ -1 -11.1197 56.0896 7 13 259
1894032S11419 1894 5 SI MM NOT_NAMED 1894-02-01 15:00:00 NR -11.2522 55.4109 main 627 551 __________P___ -1 -11.2522 55.4109 7 14 258
1894032S11419 1894 5 SI MM NOT_NAMED 1894-02-01 18:00:00 NR -11.4000 54.7000 main 551 476 __________O___ -1 -11.4000 54.7000 7 15 258
1894032S11419 1894 5 SI MM NOT_NAMED 1894-02-01 21:00:00 NR -11.5568 53.9544 main 472 387 __________P___ -1 -11.5568 53.9544 7 15 258
1894032S11419 1894 5 SI MM NOT_NAMED 1894-02-02 00:00:00 NR -11.7278 53.1850 main 387 308 __________P___ -1 -11.7278 53.1850 7 15 257
1894032S11419 1894 5 SI MM NOT_NAMED 1894-02-02 03:00:00 NR -11.9099 52.4231 main 298 219 __________P___ -1 -11.9099 52.4231 7 15 256
1894032S11419 1894 5 SI MM NOT_NAMED 1894-02-02 06:00:00 NR -12.1000 51.7000 main 219 152 __________O___ -1 -12.1000 51.7000 7 14 255
1894032S11419 1894 5 SI MM NOT_NAMED 1894-02-02 09:00:00 NR -12.2842 51.0283 main 142 77 __________P___ -1 -12.2842 51.0283 7 13 253
1894032S11419 1894 5 SI MM NOT_NAMED 1894-02-02 12:00:00 NR -12.4769 50.4023 main 77 24 __________P___ -1 -12.4769 50.4023 7 12 251
1894032S11419 1894 5 SI MM NOT_NAMED 1894-02-02 15:00:00 NR -12.6812 49.8252 main 15 0 __________P___ -1 -12.6812 49.8252 7 12 249
1894032S11419 1894 5 SI MM NOT_NAMED 1894-02-02 18:00:00 NR -12.9000 49.3000 main 0 0 __________O___ -1 -12.9000 49.3000 7 11 245
1894032S11419 1894 5 SI MM NOT_NAMED 1894-02-02 21:00:00 NR -13.1351 48.8123 main 0 0 __________P___ -1 -13.1351 48.8123 7 10 242
1894032S11419 1894 5 SI MM NOT_NAMED 1894-02-03 00:00:00 NR -13.3843 48.3748 main 15 0 __________P___ -1 -13.3843 48.3748 7 10 238
1894032S11419 1894 5 SI MM NOT_NAMED 1894-02-03 03:00:00 NR -13.6414 47.9748 main 0 0 __________P___ -1 -13.6414 47.9748 7 9 236
1894032S11419 1894 5 SI MM NOT_NAMED 1894-02-03 06:00:00 NR -13.9000 47.6000 main 32 32 __________O___ -1 -13.9000 47.6000 7 9 236
1894032S11419 1894 5 SI MM NOT_NAMED 1894-02-03 09:00:00 NR -14.1417 47.2160 main 63 58 __________P___ -1 -14.1417 47.2160 7 9 236
1894032S11419 1894 5 SI MM NOT_NAMED 1894-02-03 12:00:00 NR -14.3848 46.8546 main 70 69 __________P___ -1 -14.3848 46.8546 7 8 234
1894032S11419 1894 5 SI MM NOT_NAMED 1894-02-03 15:00:00 NR -14.6355 46.5160 main 84 64 __________P___ -1 -14.6355 46.5160 7 8 231
1894032S11419 1894 5 SI MM NOT_NAMED 1894-02-03 18:00:00 NR -14.9000 46.2000 main 70 69 __________O___ -1 -14.9000 46.2000 7 8 230
1894032S11419 1894 5 SI MM NOT_NAMED 1894-02-03 21:00:00 NR -15.1408 45.8947 main 77 55 __________P___ -1 -15.1408 45.8947 7 8 228
1894032S11419 1894 5 SI MM NOT_NAMED 1894-02-04 00:00:00 NR -15.4024 45.6116 main 55 30 __________P___ -1 -15.4024 45.6116 7 8 223
1894032S11419 1894 5 SI MM NOT_NAMED 1894-02-04 03:00:00 NR -15.7127 45.3478 main 35 0 __________P___ -1 -15.7127 45.3478 7 9 215
1894032S11419 1894 5 SI MM NOT_NAMED 1894-02-04 06:00:00 NR -16.1000 45.1000 main 0 0 __________O___ -1 -16.1000 45.1000 7 10 210
1894032S11419 1894 5 SI MM NOT_NAMED 1894-02-04 09:00:00 NR -16.6042 44.8090 main 0 0 __________P___ -1 -16.6042 44.8090 7 12 206
1894032S11419 1894 5 SI MM NOT_NAMED 1894-02-04 12:00:00 NR -17.1827 44.5393 main 0 0 __________P___ -1 -17.1827 44.5393 7 13 201
1894032S11419 1894 5 SI MM NOT_NAMED 1894-02-04 15:00:00 NR -17.7948 44.3248 main 0 0 __________P___ -1 -17.7948 44.3248 7 13 195
1894032S11419 1894 5 SI MM NOT_NAMED 1894-02-04 18:00:00 NR -18.4000 44.2000 main 0 0 __________O___ -1 -18.4000 44.2000 7 12 187
1894032S11419 1894 5 SI MM NOT_NAMED 1894-02-04 21:00:00 NR -18.9512 44.1774 main 0 0 __________P___ -1 -18.9512 44.1774 7 11 178
1894032S11419 1894 5 SI MM NOT_NAMED 1894-02-05 00:00:00 NR -19.4871 44.2493 main 30 10 __________P___ -1 -19.4871 44.2493 7 11 169
1894032S11419 1894 5 SI MM NOT_NAMED 1894-02-05 03:00:00 NR -20.0044 44.3966 main 10 0 __________P___ -1 -20.0044 44.3966 7 11 162
1894032S11419 1894 5 SI MM NOT_NAMED 1894-02-05 06:00:00 NR -20.5000 44.6000 main 0 0 __________O___ -1 -20.5000 44.6000 7 11 158
1894032S11419 1894 5 SI MM NOT_NAMED 1894-02-05 09:00:00 NR -20.9878 44.8124 main 0 0 __________P___ -1 -20.9878 44.8124 7 11 155
1894032S11419 1894 5 SI MM NOT_NAMED 1894-02-05 12:00:00 NR -21.4524 45.0749 main 0 0 __________P___ -1 -21.4524 45.0749 7 10 150
1894032S11419 1894 5 SI MM NOT_NAMED 1894-02-05 15:00:00 NR -21.8908 45.3750 main 0 0 __________P___ -1 -21.8908 45.3750 7 10 146
1894032S11419 1894 5 SI MM NOT_NAMED 1894-02-05 18:00:00 NR -22.3000 45.7000 main 0 0 __________O___ -1 -22.3000 45.7000 7 10 142
1894032S11419 1894 5 SI MM NOT_NAMED 1894-02-05 21:00:00 NR -22.6787 46.0386 main 0 0 __________P___ -1 -22.6787 46.0386 7 10 139
1894032S11419 1894 5 SI MM NOT_NAMED 1894-02-06 00:00:00 NR -23.0331 46.3865 main 0 0 __________P___ -1 -23.0331 46.3865 7 10 137
1894032S11419 1894 5 SI MM NOT_NAMED 1894-02-06 03:00:00 NR -23.3709 46.7411 main 0 0 __________P___ -1 -23.3709 46.7411 7 9 136
1894032S11419 1894 5 SI MM NOT_NAMED 1894-02-06 06:00:00 NR -23.7000 47.1000 main 0 __________O___ -1 -23.7000 47.1000 7 9 135

About IBTrACS Database

This database is a web-friendly format of International Best Track Archive for Climate Stewardship (IBTrACS), a global best track data archive curated by NOAA dating back to 1842.

Updated: 2021-12-03